Time;durP1;ratioP1;P1;durP2;ratioP2;P2;SDS_P1;SDS_P2;PMS_P1;PMS_P2;Temp;Humidity;BMP_temperature;BMP_pressure;BME280_temperature;BME280_humidity;BME280_pressure;Samples;Min_cycle;Max_cycle;Signal;HPM_P1;HPM_P2
2023/07/11 00:02:09;;;;;;;;;;;;;;;15.86;68.97;99029.88;6276257;22;20483;-83
2023/07/11 00:04:36;;;;;;;;;;;;;;;15.87;69.08;99031.50;6275241;22;19919;-83
2023/07/11 00:07:02;;;;;;;;;;;;;;;15.90;68.81;99025.28;6276014;22;19919;-83
2023/07/11 00:09:27;;;;;;;;;;;;;;;15.87;68.92;99031.50;6275508;22;19919;-85
2023/07/11 00:11:54;;;;;;;;;;;;;;;15.82;69.11;99020.72;6249984;22;19962;-84
2023/07/11 00:14:20;;;;;;;;;;;;;;;15.78;69.13;99030.88;6276740;22;19919;-87
2023/07/11 00:16:45;;;;;;;;;;;;;;;15.82;69.05;99027.03;6275014;22;19965;-84
2023/07/11 00:19:11;;;;;;;;;;;;;;;15.81;68.82;99021.91;6275018;22;19945;-90
2023/07/11 00:21:37;;;;;;;;;;;;;;;15.79;68.65;99021.44;6249106;22;19919;-84
2023/07/11 00:24:05;;;;;;;;;;;;;;;15.81;68.78;99014.44;6276928;22;20001;-91
2023/07/11 00:26:31;;;;;;;;;;;;;;;15.78;68.89;99022.59;6274097;22;19919;-86
2023/07/11 00:29:01;;;;;;;;;;;;;;;15.81;68.61;99017.19;6274516;22;19919;-81
2023/07/11 00:31:28;;;;;;;;;;;;;;;15.81;68.60;99025.44;6249273;22;19920;-83
2023/07/11 00:33:54;;;;;;;;;;;;;;;15.81;68.48;99021.91;6276763;22;19954;-81
2023/07/11 00:36:21;;;;;;;;;;;;;;;15.79;68.66;99021.44;6277411;22;19926;-85
2023/07/11 00:38:47;;;;;;;;;;;;;;;15.76;68.53;99022.16;6277028;22;19919;-92
2023/07/11 00:41:13;;;;;;;;;;;;;;;15.72;68.80;99022.06;6275745;22;19923;-89
2023/07/11 00:43:39;;;;;;;;;;;;;;;15.73;68.91;99021.72;6248253;22;20408;-87
2023/07/11 00:46:04;;;;;;;;;;;;;;;15.77;68.85;99019.06;6275989;22;19920;-86
2023/07/11 00:48:35;;;;;;;;;;;;;;;15.80;68.65;99018.34;6275960;22;20002;-86
2023/07/11 00:51:02;;;;;;;;;;;;;;;15.82;68.33;99026.25;6275008;22;19920;-87
2023/07/11 00:53:28;;;;;;;;;;;;;;;15.78;68.22;99022.59;6249167;22;19919;-87
2023/07/11 00:55:57;;;;;;;;;;;;;;;15.76;68.26;99031.25;6274225;22;20006;-86
2023/07/11 00:58:25;;;;;;;;;;;;;;;15.75;68.34;99026.84;6274812;22;21255;-89
2023/07/11 01:03:21;;;;;;;;;;;;;;;15.69;68.33;99028.28;6276695;22;20025;-88
2023/07/11 01:05:47;;;;;;;;;;;;;;;15.68;68.31;99016.47;6275469;22;19923;-86
2023/07/11 01:08:14;;;;;;;;;;;;;;;15.68;68.32;99012.91;6248333;22;19950;-85
2023/07/11 01:10:40;;;;;;;;;;;;;;;15.76;68.26;99022.97;6275028;22;19942;-86
2023/07/11 01:13:05;;;;;;;;;;;;;;;15.73;67.94;99012.66;6276188;22;19919;-85
2023/07/11 01:15:31;;;;;;;;;;;;;;;15.70;67.61;99022.44;6277156;22;20474;-88
2023/07/11 01:17:57;;;;;;;;;;;;;;;15.68;67.74;99010.94;6278225;22;19977;-88
2023/07/11 01:20:23;;;;;;;;;;;;;;;15.67;67.94;99008.56;6251047;22;19973;-85
2023/07/11 01:22:51;;;;;;;;;;;;;;;15.69;67.97;99008.97;6252248;22;19919;-86
2023/07/11 01:25:18;;;;;;;;;;;;;;;15.65;68.13;99011.63;6277119;22;20344;-86
2023/07/11 01:30:17;;;;;;;;;;;;;;;15.58;68.22;99011.44;6277110;22;19969;-87
2023/07/11 01:32:43;;;;;;;;;;;;;;;15.59;68.06;99018.53;6278529;22;19998;-86
2023/07/11 01:35:09;;;;;;;;;;;;;;;15.60;67.70;99008.34;6278355;22;20002;-87
2023/07/11 01:37:35;;;;;;;;;;;;;;;15.65;67.81;99014.38;6278445;22;19937;-84
2023/07/11 01:40:01;;;;;;;;;;;;;;;15.65;67.79;99017.13;6226473;22;20333;-85
2023/07/11 01:42:28;;;;;;;;;;;;;;;15.67;67.91;99023.13;6225996;22;19926;-86
2023/07/11 01:47:22;;;;;;;;;;;;;;;15.70;67.90;99014.16;6278554;22;19919;-86
2023/07/11 01:49:48;;;;;;;;;;;;;;;15.69;68.06;99015.31;6278465;22;19942;-86
2023/07/11 01:52:15;;;;;;;;;;;;;;;15.73;68.34;99007.94;6277456;22;19950;-84
2023/07/11 01:54:41;;;;;;;;;;;;;;;15.73;67.86;99010.69;6276698;22;20238;-86
2023/07/11 01:57:08;;;;;;;;;;;;;;;15.64;68.15;99018.28;6277117;22;20417;-88
2023/07/11 01:59:35;;;;;;;;;;;;;;;15.66;68.29;99009.66;6277772;22;19923;-87
2023/07/11 02:02:01;;;;;;;;;;;;;;;15.69;68.13;99014.50;6278123;22;19919;-87
2023/07/11 02:04:27;;;;;;;;;;;;;;;15.72;68.07;99014.59;6278249;22;19915;-86
2023/07/11 02:06:53;;;;;;;;;;;;;;;15.73;67.93;99009.91;6228037;22;19919;-87
2023/07/11 02:09:20;;;;;;;;;;;;;;;15.71;67.92;99006.69;6279568;22;20256;-85
2023/07/11 02:11:46;;;;;;;;;;;;;;;15.71;67.97;99009.44;6279875;22;19926;-86
2023/07/11 02:14:13;;;;;;;;;;;;;;;15.70;67.98;99007.84;6228612;22;19919;-95
2023/07/11 02:16:39;;;;;;;;;;;;;;;15.70;68.12;99016.13;6278484;22;19922;-92
2023/07/11 02:19:05;;;;;;;;;;;;;;;15.61;68.16;99004.44;6278686;22;19919;-85
2023/07/11 02:21:52;;;;;;;;;;;;;;;15.58;68.06;99011.44;6256095;22;20349;-88
2023/07/11 02:24:19;;;;;;;;;;;;;;;15.54;68.26;99004.25;6253009;22;19926;-87
2023/07/11 02:26:45;;;;;;;;;;;;;;;15.57;68.15;99006.28;6226594;22;19935;-93
2023/07/11 02:29:12;;;;;;;;;;;;;;;15.51;68.53;99011.25;6249639;22;19919;-86
2023/07/11 02:31:38;;;;;;;;;;;;;;;15.51;68.73;99012.06;6278614;22;19926;-86
2023/07/11 02:34:04;;;;;;;;;;;;;;;15.56;68.69;99012.94;6227805;22;20238;-86
2023/07/11 02:36:31;;;;;;;;;;;;;;;15.52;68.93;99012.84;6279842;22;19919;-86
2023/07/11 02:38:57;;;;;;;;;;;;;;;15.57;68.78;99018.13;6252595;22;19919;-87
2023/07/11 02:41:23;;;;;;;;;;;;;;;15.52;68.76;99012.84;6277671;22;20002;-92
2023/07/11 02:43:48;;;;;;;;;;;;;;;15.50;69.00;99020.69;6279578;22;19926;-87
2023/07/11 02:46:15;;;;;;;;;;;;;;;15.50;69.07;99015.97;6278356;22;19923;-89
2023/07/11 02:48:42;;;;;;;;;;;;;;;15.52;68.99;99018.34;6227212;22;20345;-86
2023/07/11 02:51:08;;;;;;;;;;;;;;;15.57;69.30;99020.06;6277709;22;19922;-86
2023/07/11 02:53:33;;;;;;;;;;;;;;;15.54;68.84;99015.25;6278633;22;19930;-93
2023/07/11 02:55:59;;;;;;;;;;;;;;;15.52;68.80;99010.09;6277893;22;19919;-84
2023/07/11 02:58:26;;;;;;;;;;;;;;;15.38;69.28;99020.75;6277551;22;20299;-83
2023/07/11 03:00:54;;;;;;;;;;;;;;;15.24;69.53;99016.44;6276825;22;19965;-85
2023/07/11 03:03:20;;;;;;;;;;;;;;;15.32;68.93;99014.69;6276430;22;20345;-84
2023/07/11 03:05:47;;;;;;;;;;;;;;;15.35;68.97;99013.19;6226013;22;20252;-86
2023/07/11 03:08:13;;;;;;;;;;;;;;;15.39;68.38;99019.56;6278291;22;20403;-85
2023/07/11 03:10:40;;;;;;;;;;;;;;;15.34;68.76;99012.38;6278511;22;19919;-91
2023/07/11 03:13:06;;;;;;;;;;;;;;;15.37;68.77;99014.44;6277159;22;19919;-85
2023/07/11 03:15:35;;;;;;;;;;;;;;;15.42;68.73;99011.41;6277658;22;19926;-93
2023/07/11 03:18:01;;;;;;;;;;;;;;;15.35;68.74;99007.66;6278059;22;20002;-84
2023/07/11 03:20:27;;;;;;;;;;;;;;;15.35;68.70;99018.69;6278348;22;19920;-84
2023/07/11 03:22:54;;;;;;;;;;;;;;;15.42;68.27;99021.63;6277910;22;19969;-84
2023/07/11 03:25:20;;;;;;;;;;;;;;;15.36;68.33;99018.31;6277679;22;19969;-88
2023/07/11 03:27:46;;;;;;;;;;;;;;;15.20;68.73;99012.81;6278536;22;19926;-85
2023/07/11 03:30:12;;;;;;;;;;;;;;;15.27;68.76;99020.47;6277900;22;19919;-85
2023/07/11 03:32:37;;;;;;;;;;;;;;;15.30;68.58;99024.44;6276903;22;19941;-83
2023/07/11 03:35:04;;;;;;;;;;;;;;;15.24;68.80;99013.69;6276248;22;20089;-89
2023/07/11 03:37:30;;;;;;;;;;;;;;;15.34;68.62;99006.06;6224683;22;19919;-85
2023/07/11 03:39:56;;;;;;;;;;;;;;;15.23;69.18;99020.34;6278597;22;19927;-87
2023/07/11 03:44:50;;;;;;;;;;;;;;;15.22;69.01;99021.50;6278169;22;19926;-84
2023/07/11 03:47:17;;;;;;;;;;;;;;;15.25;69.16;99025.50;6276551;22;19920;-90
2023/07/11 03:49:43;;;;;;;;;;;;;;;15.31;69.11;99012.28;6277492;22;19947;-84
2023/07/11 03:52:09;;;;;;;;;;;;;;;15.33;69.21;99004.47;6279056;22;19926;-86
2023/07/11 03:54:34;;;;;;;;;;;;;;;15.39;68.96;99017.63;6275249;22;19919;-85
2023/07/11 03:57:00;;;;;;;;;;;;;;;15.32;68.70;99014.69;6279188;22;20352;-84
2023/07/11 03:59:26;;;;;;;;;;;;;;;15.33;68.66;99012.72;6278531;22;20363;-88
2023/07/11 04:01:52;;;;;;;;;;;;;;;15.43;68.34;99013.03;6278378;22;19946;-86
2023/07/11 04:04:18;;;;;;;;;;;;;;;15.53;68.27;99006.22;6279860;22;19973;-90
2023/07/11 04:06:43;;;;;;;;;;;;;;;15.58;68.31;99011.44;6278540;22;19923;-86
2023/07/11 04:09:09;;;;;;;;;;;;;;;15.65;68.52;99022.66;6276590;22;20478;-85
2023/07/11 04:11:35;;;;;;;;;;;;;;;15.60;68.28;99006.38;6278474;22;19926;-86
2023/07/11 04:14:01;;;;;;;;;;;;;;;15.56;68.65;99013.72;6278983;22;19926;-88
2023/07/11 04:16:27;;;;;;;;;;;;;;;15.52;68.72;99004.59;6278745;22;19926;-85
2023/07/11 04:18:53;;;;;;;;;;;;;;;15.36;69.28;99014.78;6252608;22;19919;-86
2023/07/11 04:21:19;;;;;;;;;;;;;;;15.37;68.74;99006.16;6278707;22;19919;-84
2023/07/11 04:23:44;;;;;;;;;;;;;;;15.45;68.84;99001.66;6280571;22;19923;-85
2023/07/11 04:26:10;;;;;;;;;;;;;;;15.49;67.93;99003.31;6278844;22;19923;-86
2023/07/11 04:31:05;;;;;;;;;;;;;;;15.36;66.54;99001.78;6275847;22;19930;-87
2023/07/11 04:33:30;;;;;;;;;;;;;;;15.39;66.67;99008.56;6279959;22;19919;-84
2023/07/11 04:36:05;;;;;;;;;;;;;;;15.39;66.73;99009.34;6277991;22;20335;-86
2023/07/11 04:38:31;;;;;;;;;;;;;;;15.30;66.82;99011.50;6278636;22;19915;-89
2023/07/11 04:41:00;;;;;;;;;;;;;;;15.38;66.47;99005.00;6280985;22;19977;-85
2023/07/11 04:43:26;;;;;;;;;;;;;;;15.47;66.08;99000.16;6255578;22;19922;-86
2023/07/11 04:45:54;;;;;;;;;;;;;;;15.52;65.59;99001.81;6254323;22;19919;-86
2023/07/11 04:48:20;;;;;;;;;;;;;;;15.59;65.17;98992.94;6279688;22;19919;-85
2023/07/11 04:50:46;;;;;;;;;;;;;;;15.65;65.10;99002.56;6278409;22;20238;-85
2023/07/11 04:53:12;;;;;;;;;;;;;;;15.65;64.97;99003.34;6277186;22;19920;-85
2023/07/11 04:55:38;;;;;;;;;;;;;;;15.70;65.06;99008.66;6275627;22;19919;-85
2023/07/11 04:58:04;;;;;;;;;;;;;;;15.66;65.03;99002.25;6280857;22;19923;-87
2023/07/11 05:00:30;;;;;;;;;;;;;;;15.64;64.78;99000.97;6279283;22;19919;-85
2023/07/11 05:02:58;;;;;;;;;;;;;;;15.56;64.67;98997.22;6277940;22;19919;-85
2023/07/11 05:05:24;;;;;;;;;;;;;;;15.62;64.47;98995.78;6221693;22;20349;-84
2023/07/11 05:07:50;;;;;;;;;;;;;;;15.68;64.07;98988.09;6275251;22;19926;-84
2023/07/11 05:13:00;;;;;;;;;;;;;;;15.74;63.15;98983.94;6274219;22;19998;-88
2023/07/11 05:15:25;;;;;;;;;;;;;;;15.65;63.47;98986.03;6273444;22;19950;-86
2023/07/11 05:17:51;;;;;;;;;;;;;;;15.70;63.95;98983.06;6223672;22;20423;-86
2023/07/11 05:20:17;;;;;;;;;;;;;;;15.54;64.21;98991.25;6274783;22;19919;-91
2023/07/11 05:22:43;;;;;;;;;;;;;;;15.48;64.63;98990.72;6252952;22;19919;-87
2023/07/11 05:25:08;;;;;;;;;;;;;;;15.31;65.47;98977.28;6226193;22;19926;-85
2023/07/11 05:27:53;;;;;;;;;;;;;;;15.33;65.80;98985.19;6275961;22;19926;-93
2023/07/11 05:30:19;;;;;;;;;;;;;;;15.39;65.91;98990.06;6249865;22;19919;-88
2023/07/11 05:32:45;;;;;;;;;;;;;;;15.47;65.52;98988.34;6276248;22;19981;-88
2023/07/11 05:35:11;;;;;;;;;;;;;;;15.40;65.82;98980.69;6278234;22;20234;-87
2023/07/11 05:37:37;;;;;;;;;;;;;;;15.48;64.81;98985.22;6275636;22;19970;-88
2023/07/11 05:40:03;;;;;;;;;;;;;;;15.48;64.97;98995.44;6227418;22;19949;-92
2023/07/11 05:42:30;;;;;;;;;;;;;;;15.44;65.82;98984.31;6251294;22;19952;-87
2023/07/11 05:44:56;;;;;;;;;;;;;;;15.48;65.52;98976.94;6278070;22;19926;-88
2023/07/11 05:47:22;;;;;;;;;;;;;;;15.55;65.26;98986.56;6277407;22;19924;-88
2023/07/11 05:49:48;;;;;;;;;;;;;;;15.41;65.98;98986.97;6276925;22;19922;-90
2023/07/11 05:52:14;;;;;;;;;;;;;;;15.40;65.91;98980.69;6223549;22;19925;-87
2023/07/11 05:54:40;;;;;;;;;;;;;;;15.56;65.24;98975.16;6274571;22;19926;-87
2023/07/11 05:57:06;;;;;;;;;;;;;;;15.77;64.58;98963.94;6247822;22;19919;-86
2023/07/11 05:59:32;;;;;;;;;;;;;;;15.97;63.29;98967.56;6223207;22;19919;-92
2023/07/11 06:01:57;;;;;;;;;;;;;;;16.02;62.45;98961.75;6249447;22;19923;-87
2023/07/11 06:04:23;;;;;;;;;;;;;;;16.12;62.14;98957.66;6279069;22;19971;-89
2023/07/11 06:06:49;;;;;;;;;;;;;;;16.18;62.08;98953.47;6277410;22;20341;-86
2023/07/11 06:09:16;;;;;;;;;;;;;;;16.21;62.00;98956.31;6277643;22;20293;-87
2023/07/11 06:11:43;;;;;;;;;;;;;;;16.25;62.20;98964.66;6274946;22;19919;-84
2023/07/11 06:14:09;;;;;;;;;;;;;;;16.11;62.16;98956.06;6276472;22;19919;-85
2023/07/11 06:16:36;;;;;;;;;;;;;;;16.10;62.42;98963.53;6276006;22;19965;-86
2023/07/11 06:19:04;;;;;;;;;;;;;;;16.18;62.65;98958.97;6274803;22;19919;-86
2023/07/11 06:21:30;;;;;;;;;;;;;;;16.16;62.58;98947.53;6278334;22;20524;-85
2023/07/11 06:23:56;;;;;;;;;;;;;;;16.14;62.74;98952.59;6277696;22;19968;-87
2023/07/11 06:26:21;;;;;;;;;;;;;;;16.17;62.87;98954.63;6280347;22;20249;-86
2023/07/11 06:28:47;;;;;;;;;;;;;;;16.11;62.78;98954.09;6277307;22;19927;-88
2023/07/11 06:31:13;;;;;;;;;;;;;;;16.06;62.31;98956.34;6249299;22;19977;-85
2023/07/11 06:33:39;;;;;;;;;;;;;;;16.12;62.69;98939.16;6278089;22;20261;-85
2023/07/11 06:36:05;;;;;;;;;;;;;;;16.14;61.87;98939.59;6286039;22;19919;-87
2023/07/11 06:38:32;;;;;;;;;;;;;;;16.26;62.43;98941.47;6280420;22;19941;-86
2023/07/11 06:40:58;;;;;;;;;;;;;;;16.18;62.08;98939.69;6282280;22;19919;-87
2023/07/11 06:43:25;;;;;;;;;;;;;;;16.26;61.92;98935.94;6278458;22;20025;-87
2023/07/11 06:45:55;;;;;;;;;;;;;;;16.00;62.32;98942.03;6277914;22;20404;-87
2023/07/11 06:48:24;;;;;;;;;;;;;;;16.04;62.59;98940.16;6278880;22;19919;-86
2023/07/11 06:50:51;;;;;;;;;;;;;;;16.09;62.82;98937.13;6279173;22;19994;-88
2023/07/11 06:53:18;;;;;;;;;;;;;;;16.11;62.67;98939.53;6257007;22;20467;-89
2023/07/11 06:55:45;;;;;;;;;;;;;;;16.02;63.42;98936.16;6277670;22;19965;-87
2023/07/11 06:58:11;;;;;;;;;;;;;;;16.06;63.13;98932.34;6276749;22;19934;-86
2023/07/11 07:00:37;;;;;;;;;;;;;;;15.89;63.79;98933.53;6254604;22;19922;-91
2023/07/11 07:03:03;;;;;;;;;;;;;;;16.00;63.88;98931.00;6276016;22;19943;-85
2023/07/11 07:05:29;;;;;;;;;;;;;;;16.08;63.39;98932.75;6276512;22;19923;-91
2023/07/11 07:07:55;;;;;;;;;;;;;;;16.27;62.20;98928.47;6275334;22;19919;-91
2023/07/11 07:10:21;;;;;;;;;;;;;;;16.49;61.41;98927.78;6222555;22;19930;-90
2023/07/11 07:12:47;;;;;;;;;;;;;;;16.49;61.21;98937.97;6273346;22;19919;-85
2023/07/11 07:15:13;;;;;;;;;;;;;;;16.54;60.91;98934.94;6273182;22;20010;-90
2023/07/11 07:17:39;;;;;;;;;;;;;;;16.41;61.53;98942.56;6276868;22;19946;-90
2023/07/11 07:20:05;;;;;;;;;;;;;;;16.45;62.07;98935.16;6276221;22;19930;-84
2023/07/11 07:22:31;;;;;;;;;;;;;;;16.48;62.18;98928.91;6277781;22;19919;-90
2023/07/11 07:24:57;;;;;;;;;;;;;;;16.40;61.70;98932.69;6252004;22;19928;-86
2023/07/11 07:27:26;;;;;;;;;;;;;;;16.39;61.54;98929.13;6276198;22;19977;-90
2023/07/11 07:30:01;;;;;;;;;;;;;;;16.55;61.23;98925.50;6250010;22;19919;-90
2023/07/11 07:32:57;;;;;;;;;;;;;;;16.77;61.04;98930.34;6271825;22;19919;-86
2023/07/11 07:35:23;;;;;;;;;;;;;;;16.93;59.95;98923.94;6273101;22;19919;-91
2023/07/11 07:37:49;;;;;;;;;;;;;;;16.93;59.31;98913.69;6222472;22;20359;-88
2023/07/11 07:40:16;;;;;;;;;;;;;;;17.04;59.97;98914.69;6278580;22;19919;-86
2023/07/11 07:42:41;;;;;;;;;;;;;;;17.13;59.93;98925.50;6281149;22;19978;-91
2023/07/11 07:45:09;;;;;;;;;;;;;;;16.98;59.84;98916.13;6278144;22;19923;-91
2023/07/11 07:47:38;;;;;;;;;;;;;;;16.87;60.24;98924.22;6226103;22;19919;-88
2023/07/11 07:50:05;;;;;;;;;;;;;;;16.75;60.71;98912.53;6281656;22;19923;-90
2023/07/11 07:52:31;;;;;;;;;;;;;;;16.81;60.39;98911.88;6277918;22;19923;-87
2023/07/11 07:54:56;;;;;;;;;;;;;;;16.90;60.91;98908.91;6253581;22;19926;-87
2023/07/11 07:57:22;;;;;;;;;;;;;;;17.03;60.35;98915.84;6281357;22;19920;-93
2023/07/11 07:59:49;;;;;;;;;;;;;;;16.99;60.56;98919.72;6274574;22;19958;-88
2023/07/11 08:02:15;;;;;;;;;;;;;;;16.89;60.69;98921.13;6277650;22;20005;-91
2023/07/11 08:04:41;;;;;;;;;;;;;;;16.93;60.70;98919.22;6244979;22;19973;-81
2023/07/11 08:07:07;;;;;;;;;;;;;;;16.91;61.01;98927.06;6271294;22;19919;-83
2023/07/11 08:09:33;;;;;;;;;;;;;;;16.93;60.31;98927.50;6271161;22;19945;-80
2023/07/11 08:12:07;;;;;;;;;;;;;;;17.00;59.92;98924.06;6270520;22;19923;-79
2023/07/11 08:14:36;;;;;;;;;;;;;;;17.03;59.52;98926.91;6267591;22;19919;-80
2023/07/11 08:17:02;;;;;;;;;;;;;;;16.94;59.97;98915.28;6270809;22;19958;-79
2023/07/11 08:19:28;;;;;;;;;;;;;;;16.89;60.43;98910.88;6270559;22;19951;-86
2023/07/11 08:21:54;;;;;;;;;;;;;;;16.81;60.93;98913.84;6268396;22;20331;-80
2023/07/11 08:24:20;;;;;;;;;;;;;;;16.78;61.08;98926.41;6272627;22;19926;-80
2023/07/11 08:26:47;;;;;;;;;;;;;;;16.78;61.21;98922.84;6272722;22;19926;-78
2023/07/11 08:29:13;;;;;;;;;;;;;;;16.85;60.78;98932.09;6269992;22;20403;-84
2023/07/11 08:34:31;;;;;;;;;;;;;;;17.35;59.75;98929.44;6283475;22;19931;-86
2023/07/11 08:36:57;;;;;;;;;;;;;;;17.41;58.32;98941.00;6279874;22;20015;-85
2023/07/11 08:39:23;;;;;;;;;;;;;;;17.21;58.42;98927.22;6303688;22;20014;-86
2023/07/11 08:41:50;;;;;;;;;;;;;;;17.09;58.87;98928.22;6229771;22;19919;-88
2023/07/11 08:44:18;;;;;;;;;;;;;;;17.04;59.55;98930.47;6229232;22;20026;-87
2023/07/11 08:46:51;;;;;;;;;;;;;;;17.03;59.25;98929.66;6308386;22;19942;-87
2023/07/11 08:49:21;;;;;;;;;;;;;;;17.22;59.90;98934.38;6251736;22;20382;-87
2023/07/11 08:51:50;;;;;;;;;;;;;;;17.28;59.13;98935.63;6309031;22;19919;-86
2023/07/11 08:54:31;;;;;;;;;;;;;;;17.37;58.23;98940.94;6279160;22;20785;-87
2023/07/11 08:56:59;;;;;;;;;;;;;;;17.53;57.75;98943.59;6227601;22;19954;-85
2023/07/11 09:00:02;;;;;;;;;;;;;;;17.68;56.80;98930.78;6283263;22;20256;-85
2023/07/11 09:02:39;;;;;;;;;;;;;;;17.94;55.83;98928.09;6294615;22;19918;-86
2023/07/11 09:05:13;;;;;;;;;;;;;;;18.17;55.76;98916.16;6254642;22;19919;-86
2023/07/11 09:08:16;;;;;;;;;;;;;;;18.11;55.19;98920.44;6255399;22;19940;-86
2023/07/11 09:10:51;;;;;;;;;;;;;;;18.06;55.96;98919.59;6283737;22;19926;-85
2023/07/11 09:13:29;;;;;;;;;;;;;;;17.99;55.55;98919.47;6229073;22;19918;-87
2023/07/11 09:16:14;;;;;;;;;;;;;;;17.83;55.84;98927.13;6283306;22;19926;-84
2023/07/11 09:18:56;;;;;;;;;;;;;;;18.14;56.21;98919.69;6227088;22;20380;-86
2023/07/11 09:21:31;;;;;;;;;;;;;;;18.38;56.41;98913.72;6226492;22;20013;-86
2023/07/11 09:24:09;;;;;;;;;;;;;;;18.60;56.89;98928.63;6304976;22;19918;-85
2023/07/11 09:26:40;;;;;;;;;;;;;;;18.53;55.40;98917.44;6254357;22;19922;-85
2023/07/11 09:29:09;;;;;;;;;;;;;;;18.35;55.25;98925.53;6301060;22;19943;-85
2023/07/11 09:31:40;;;;;;;;;;;;;;;18.49;56.17;98914.66;6303017;22;20001;-86
2023/07/11 09:34:15;;;;;;;;;;;;;;;18.76;54.96;98909.84;6306402;22;20005;-86
2023/07/11 09:36:42;;;;;;;;;;;;;;;19.11;54.36;98914.22;6306977;22;19922;-84
2023/07/11 09:39:24;;;;;;;;;;;;;;;19.06;53.44;98902.66;6305593;22;19945;-85
2023/07/11 09:42:09;;;;;;;;;;;;;;;19.17;53.90;98904.38;6279071;22;19943;-84
2023/07/11 09:44:35;;;;;;;;;;;;;;;18.92;52.90;98895.00;6229334;22;20272;-85
2023/07/11 09:47:17;;;;;;;;;;;;;;;18.97;54.03;98905.72;6309011;22;19964;-83
2023/07/11 09:49:48;;;;;;;;;;;;;;;18.97;54.59;98889.13;6310321;22;19918;-84
2023/07/11 09:52:26;;;;;;;;;;;;;;;18.96;53.42;98902.16;6305765;22;19981;-85
2023/07/11 09:54:54;;;;;;;;;;;;;;;18.75;54.10;98899.97;6306859;22;19950;-83
2023/07/11 09:57:20;;;;;;;;;;;;;;;18.83;53.95;98903.59;6306390;22;19921;-85
2023/07/11 09:59:59;;;;;;;;;;;;;;;18.95;52.97;98908.91;6307991;22;19918;-87
2023/07/11 10:02:25;;;;;;;;;;;;;;;18.94;53.03;98918.38;6306508;22;19919;-87
2023/07/11 10:04:56;;;;;;;;;;;;;;;18.84;53.84;98908.00;6305527;22;19919;-84
2023/07/11 10:07:26;;;;;;;;;;;;;;;18.83;53.82;98909.16;6281305;22;19932;-84
2023/07/11 10:09:59;;;;;;;;;;;;;;;18.69;53.97;98911.72;6255153;22;19919;-85
2023/07/11 10:12:25;;;;;;;;;;;;;;;18.44;54.84;98903.91;6307815;22;20702;-85
2023/07/11 10:14:58;;;;;;;;;;;;;;;18.44;55.93;98906.69;6282729;22;19919;-84
2023/07/11 10:17:26;;;;;;;;;;;;;;;18.39;54.69;98914.50;6281645;22;19919;-85
2023/07/11 10:19:57;;;;;;;;;;;;;;;18.34;55.17;98914.81;6256215;22;19919;-83
2023/07/11 10:22:26;;;;;;;;;;;;;;;18.38;54.20;98926.75;6233616;22;19919;-84
2023/07/11 10:25:14;;;;;;;;;;;;;;;18.39;54.29;98931.13;6291464;22;19919;-84
2023/07/11 10:27:58;;;;;;;;;;;;;;;18.38;54.26;98927.56;6266481;22;19930;-84
2023/07/11 10:30:27;;;;;;;;;;;;;;;18.46;53.93;98920.13;6266736;22;19919;-87
2023/07/11 10:32:58;;;;;;;;;;;;;;;18.63;53.81;98924.31;6282839;22;19926;-83
2023/07/11 10:35:25;;;;;;;;;;;;;;;18.76;53.34;98934.78;6309741;22;20359;-85
2023/07/11 10:38:13;;;;;;;;;;;;;;;18.93;53.07;98919.53;6306749;22;19919;-85
2023/07/11 10:40:43;;;;;;;;;;;;;;;18.90;52.62;98933.34;6179139;22;19915;-85
2023/07/11 10:43:29;;;;;;;;;;;;;;;19.05;52.74;98917.72;6310746;22;19923;-85
2023/07/11 10:46:13;;;;;;;;;;;;;;;18.94;52.32;98926.69;6313201;22;19915;-86
2023/07/11 10:48:43;;;;;;;;;;;;;;;19.00;52.01;98927.94;6287718;22;19950;-84
2023/07/11 10:51:19;;;;;;;;;;;;;;;19.11;52.31;98919.75;6239712;22;19945;-82
2023/07/11 10:53:59;;;;;;;;;;;;;;;19.24;51.81;98914.75;6311525;22;19979;-84
2023/07/11 10:56:28;;;;;;;;;;;;;;;19.37;51.64;98921.59;6284866;22;19926;-86
2023/07/11 10:58:54;;;;;;;;;;;;;;;19.58;51.07;98926.53;6311441;22;19921;-85
2023/07/11 11:02:04;;;;;;;;;;;;;;;19.91;51.00;98914.53;6259407;22;19923;-86
2023/07/11 11:20:21;;;;;;;;;;;;;;;19.86;49.04;98912.13;6292168;22;19929;-86
2023/07/11 11:23:05;;;;;;;;;;;;;;;19.76;50.00;98912.84;6342930;22;20310;-86
2023/07/11 11:25:46;;;;;;;;;;;;;;;19.50;50.48;98930.41;6286258;22;20271;-87
2023/07/11 11:28:23;;;;;;;;;;;;;;;19.01;53.52;98917.66;6339329;22;19918;-90
2023/07/11 11:31:08;;;;;;;;;;;;;;;18.47;56.74;98935.56;6345216;22;19910;-87
2023/07/11 11:33:55;;;;;;;;;;;;;;;17.96;58.19;98944.31;6288024;22;19934;-91
2023/07/11 11:36:26;;;;;;;;;;;;;;;17.66;61.72;98949.72;6242093;22;19918;-92
2023/07/11 11:38:55;;;;;;;;;;;;;;;17.32;62.89;98939.28;6336769;22;19923;-86
2023/07/11 11:41:30;;;;;;;;;;;;;;;17.21;63.72;98943.00;6308471;22;19922;-87
2023/07/11 11:43:56;;;;;;;;;;;;;;;17.16;65.14;98943.31;6283759;22;19926;-87
2023/07/11 11:46:22;;;;;;;;;;;;;;;17.22;67.04;98941.81;6286241;22;19918;-88
2023/07/11 11:48:50;;;;;;;;;;;;;;;17.22;66.83;98939.06;6345677;22;20244;-88
2023/07/11 11:51:18;;;;;;;;;;;;;;;17.12;67.00;98937.72;6334669;22;19919;-88
2023/07/11 11:53:46;;;;;;;;;;;;;;;17.06;67.32;98945.50;6337196;22;19928;-89
2023/07/11 11:56:19;;;;;;;;;;;;;;;16.86;67.66;98941.16;6338421;22;19953;-87
2023/07/11 11:58:50;;;;;;;;;;;;;;;16.94;68.81;98942.91;6341176;22;20013;-91
2023/07/11 12:01:31;;;;;;;;;;;;;;;17.09;68.36;98938.47;6338394;22;19919;-90
2023/07/11 12:03:58;;;;;;;;;;;;;;;17.08;65.55;98931.31;6313770;22;19914;-91
2023/07/11 12:06:30;;;;;;;;;;;;;;;17.00;66.10;98927.63;6287649;22;19934;-86
2023/07/11 12:09:16;;;;;;;;;;;;;;;17.18;65.68;98936.25;6336402;22;19921;-84
2023/07/11 12:12:01;;;;;;;;;;;;;;;17.18;65.43;98927.16;6239731;22;19957;-93
2023/07/11 12:14:35;;;;;;;;;;;;;;;16.97;65.33;98933.09;6338307;22;19919;-90
2023/07/11 12:17:02;;;;;;;;;;;;;;;17.06;67.84;98923.41;6342086;22;19918;-88
2023/07/11 12:19:30;;;;;;;;;;;;;;;17.20;68.55;98922.06;6340796;22;20373;-88
2023/07/11 12:22:03;;;;;;;;;;;;;;;17.38;72.12;98917.66;6341230;22;19926;-83
2023/07/11 12:24:32;;;;;;;;;;;;;;;17.42;70.89;98915.78;6288257;22;20282;-86
2023/07/11 12:27:10;;;;;;;;;;;;;;;17.49;71.86;98915.09;6342842;22;19926;-86
2023/07/11 12:29:36;;;;;;;;;;;;;;;17.53;68.39;98910.41;6287601;22;19919;-89
2023/07/11 12:32:22;;;;;;;;;;;;;;;17.65;66.68;98923.22;6288947;22;19929;-91
2023/07/11 12:34:54;;;;;;;;;;;;;;;17.67;67.60;98926.44;6312182;22;19918;-87
2023/07/11 12:37:21;;;;;;;;;;;;;;;17.75;70.66;98928.16;6311397;22;19918;-87
2023/07/11 12:40:06;;;;;;;;;;;;;;;17.87;71.15;98930.75;6313191;22;19953;-83
2023/07/11 12:42:52;;;;;;;;;;;;;;;18.00;71.89;98929.38;6338466;22;19918;-89
2023/07/11 12:45:20;;;;;;;;;;;;;;;18.06;68.66;98933.41;6337806;22;20344;-89
2023/07/11 12:47:47;;;;;;;;;;;;;;;18.11;67.25;98937.81;6337108;22;20324;-84
2023/07/11 12:50:19;;;;;;;;;;;;;;;18.09;69.84;98948.47;6281300;22;19923;-89
2023/07/11 12:52:55;;;;;;;;;;;;;;;17.95;72.07;98953.78;6306716;22;20052;-92
2023/07/11 12:55:23;;;;;;;;;;;;;;;17.78;72.48;98958.66;6311245;22;19925;-85
2023/07/11 12:57:48;;;;;;;;;;;;;;;17.57;66.26;98955.50;6310037;22;20001;-89
2023/07/11 13:00:21;;;;;;;;;;;;;;;17.35;69.78;98968.13;6259987;22;20275;-87
2023/07/11 13:02:50;;;;;;;;;;;;;;;17.29;70.87;98967.66;6312630;22;20275;-94
2023/07/11 13:05:16;;;;;;;;;;;;;;;17.30;71.42;98969.22;6312933;22;19918;-91
2023/07/11 13:07:44;;;;;;;;;;;;;;;17.32;67.36;98960.59;6287364;22;20444;-86
2023/07/11 13:10:18;;;;;;;;;;;;;;;17.36;68.01;98950.41;6256558;22;19925;-89
2023/07/11 13:12:47;;;;;;;;;;;;;;;17.36;70.94;98947.63;6312106;22;20260;-88
2023/07/11 13:15:18;;;;;;;;;;;;;;;17.51;72.55;98946.69;6258848;22;19922;-90
2023/07/11 13:17:46;;;;;;;;;;;;;;;17.56;68.33;98951.13;6259170;22;19918;-89
2023/07/11 13:20:18;;;;;;;;;;;;;;;17.47;71.97;98945.84;6311196;22;20229;-88
2023/07/11 13:22:44;;;;;;;;;;;;;;;17.59;74.12;98937.38;6257614;22;19928;-87
2023/07/11 13:25:13;;;;;;;;;;;;;;;17.57;67.11;98941.69;6337745;22;20001;-87
2023/07/11 13:27:41;;;;;;;;;;;;;;;17.59;67.04;98942.13;6335781;22;19960;-87
2023/07/11 13:30:22;;;;;;;;;;;;;;;17.53;66.01;98955.44;6258763;22;19960;-86
2023/07/11 13:32:55;;;;;;;;;;;;;;;17.36;65.00;98966.97;6258884;22;19973;-88